createdAt,value
2024-02-08T00:02:17.269Z,99352.91
2024-02-08T00:07:19.538Z,99353.13
2024-02-08T00:12:22.675Z,99352.66
2024-02-08T00:17:24.846Z,99337.59
2024-02-08T00:22:27.072Z,99332.84
2024-02-08T00:27:29.358Z,99344.66
2024-02-08T00:32:31.747Z,99346.41
2024-02-08T00:37:34.047Z,99343.19
2024-02-08T00:42:36.273Z,99340.63
2024-02-08T00:47:38.730Z,99341.50
2024-02-08T00:52:42.344Z,99336.53
2024-02-08T00:57:44.736Z,99326.94
2024-02-08T01:02:47.018Z,99328.78
2024-02-08T01:07:49.350Z,99332.97
2024-02-08T01:12:53.667Z,99337.56
2024-02-08T01:17:55.867Z,99336.25
2024-02-08T01:23:00.133Z,99335.00
2024-02-08T01:28:02.464Z,99331.63
2024-02-08T01:33:06.254Z,99325.00
2024-02-08T01:38:09.390Z,99304.41
2024-02-08T01:43:14.588Z,99312.94
2024-02-08T01:48:18.170Z,99311.44
2024-02-08T01:53:29.910Z,99298.81
2024-02-08T01:58:34.551Z,99294.28
2024-02-08T02:03:37.100Z,99297.38
2024-02-08T02:08:39.956Z,99284.41
2024-02-08T02:13:43.588Z,99291.69
2024-02-08T02:18:45.877Z,99292.44
2024-02-08T02:23:48.287Z,99291.13
2024-02-08T02:28:52.442Z,99285.56
2024-02-08T02:33:54.860Z,99282.69
2024-02-08T02:38:57.340Z,99285.72
2024-02-08T02:43:59.834Z,99290.59
2024-02-08T02:49:02.227Z,99278.94
2024-02-08T02:54:04.735Z,99292.94
2024-02-08T02:59:06.920Z,99309.84
2024-02-08T03:04:09.185Z,99306.75
2024-02-08T03:09:18.897Z,99304.84
2024-02-08T03:14:23.381Z,99317.28
2024-02-08T03:19:30.159Z,99317.81
2024-02-08T03:24:37.127Z,99320.56
2024-02-08T03:29:43.230Z,99325.41
2024-02-08T03:34:45.431Z,99334.66
2024-02-08T03:39:48.261Z,99327.47
2024-02-08T03:44:52.214Z,99330.34
2024-02-08T03:49:54.676Z,99331.41
2024-02-08T03:54:59.980Z,99328.06
2024-02-08T04:00:02.916Z,99336.59
2024-02-08T04:05:10.840Z,99325.69
2024-02-08T04:10:32.786Z,99301.00
2024-02-08T04:15:55.046Z,99320.84
2024-02-08T04:21:17.219Z,99309.31
2024-02-08T04:26:38.436Z,99338.13
2024-02-08T04:31:59.231Z,99316.19
2024-02-08T04:37:27.876Z,99311.72
2024-02-08T04:42:48.454Z,99300.63
2024-02-08T04:48:10.965Z,99310.47
2024-02-08T04:53:31.558Z,99325.16
2024-02-08T04:58:57.187Z,99318.94
2024-02-08T05:03:59.254Z,99311.72
2024-02-08T05:09:01.948Z,99320.91
2024-02-08T05:14:04.149Z,99323.34
2024-02-08T05:19:06.506Z,99319.09
2024-02-08T05:24:10.036Z,99345.47
2024-02-08T05:29:20.746Z,99344.09
2024-02-08T05:34:27.250Z,99341.50
2024-02-08T05:39:30.039Z,99357.34
2024-02-08T05:44:33.747Z,99353.41
2024-02-08T05:49:36.672Z,99339.16
2024-02-08T05:54:41.701Z,99327.44
2024-02-08T05:59:46.508Z,99345.81
2024-02-08T06:05:01.049Z,99345.97
2024-02-08T06:10:15.478Z,99349.25
2024-02-08T06:15:35.077Z,99348.72
2024-02-08T06:20:42.527Z,99358.00
2024-02-08T06:26:14.655Z,99358.81
2024-02-08T06:31:20.204Z,99360.37
2024-02-08T06:36:25.387Z,99368.66
2024-02-08T06:41:47.550Z,99367.13
2024-02-08T06:46:50.237Z,99375.91
2024-02-08T06:52:11.212Z,99371.97
2024-02-08T06:57:31.897Z,99372.44
2024-02-08T07:02:52.875Z,99381.03
2024-02-08T07:08:13.844Z,99409.16
2024-02-08T07:13:35.038Z,99403.50
2024-02-08T07:19:02.931Z,99403.06
2024-02-08T07:24:28.285Z,99408.56
2024-02-08T07:30:16.889Z,99410.06
2024-02-08T07:35:37.535Z,99419.03
2024-02-08T07:40:39.760Z,99416.44
2024-02-08T07:45:49.705Z,99426.12
2024-02-08T07:50:53.542Z,99395.62
2024-02-08T07:56:15.974Z,99421.44
2024-02-08T08:01:21.882Z,99413.47
2024-02-08T08:06:24.524Z,99430.69
2024-02-08T08:11:32.770Z,99422.28
2024-02-08T08:16:35.240Z,99423.06
2024-02-08T08:21:57.297Z,99415.13
2024-02-08T08:27:08.562Z,99415.09
2024-02-08T08:32:33.221Z,99402.69
2024-02-08T08:37:45.753Z,99407.19
2024-02-08T08:42:51.964Z,99406.87
2024-02-08T08:48:01.882Z,99394.94
2024-02-08T08:53:18.353Z,99407.44
2024-02-08T08:58:24.029Z,99408.31
2024-02-08T09:03:29.502Z,99410.75
2024-02-08T09:08:44.394Z,99401.84
2024-02-08T09:13:52.942Z,99403.34
2024-02-08T09:19:03.797Z,99410.69
2024-02-08T09:24:08.383Z,99420.56
2024-02-08T09:29:13.618Z,99412.69
2024-02-08T09:34:16.134Z,99397.06
2024-02-08T09:39:18.756Z,99398.59
2024-02-08T09:44:27.352Z,99405.44
2024-02-08T09:49:36.471Z,99397.50
2024-02-08T09:54:39.014Z,99393.63
2024-02-08T10:00:00.650Z,99387.06
2024-02-08T10:05:23.514Z,99381.28
2024-02-08T10:10:28.336Z,99382.44
2024-02-08T10:15:40.889Z,99379.31
2024-02-08T10:20:49.031Z,99372.38
2024-02-08T10:26:17.411Z,99359.94
2024-02-08T10:31:30.290Z,99367.97
2024-02-08T10:36:36.615Z,99357.28
2024-02-08T10:41:58.439Z,99343.97
2024-02-08T10:47:08.650Z,99328.13
2024-02-08T10:52:18.122Z,99322.41
2024-02-08T10:57:39.001Z,99320.09
2024-02-08T11:03:01.743Z,99314.44
2024-02-08T11:08:14.690Z,99307.59
2024-02-08T11:13:30.538Z,99323.56
2024-02-08T11:18:36.981Z,99309.81
2024-02-08T11:23:47.534Z,99294.25
2024-02-08T11:28:51.554Z,99292.56
2024-02-08T11:33:56.818Z,99304.22
2024-02-08T11:39:00.089Z,99283.81
2024-02-08T11:44:07.236Z,99278.25
2024-02-08T11:49:17.834Z,99267.25
2024-02-08T11:54:24.520Z,99261.47
2024-02-08T11:59:27.979Z,99256.81
2024-02-08T12:04:31.021Z,99241.50
2024-02-08T12:09:33.393Z,99258.81
2024-02-08T12:14:40.415Z,99250.19
2024-02-08T12:19:43.022Z,99249.25
2024-02-08T12:24:45.348Z,99243.09
2024-02-08T12:29:52.235Z,99249.22
2024-02-08T12:34:58.637Z,99238.87
2024-02-08T12:40:00.955Z,99229.75
2024-02-08T12:45:03.359Z,99238.87
2024-02-08T12:50:19.115Z,99231.22
2024-02-08T12:55:31.549Z,99236.06
2024-02-08T13:00:37.285Z,99234.88
2024-02-08T13:05:41.028Z,99251.44
2024-02-08T13:10:43.471Z,99253.91
2024-02-08T13:15:45.674Z,99251.78
2024-02-08T13:20:48.957Z,99241.69
2024-02-08T13:25:59.117Z,99233.06
2024-02-08T13:31:09.897Z,99218.34
2024-02-08T13:36:12.973Z,99222.00
2024-02-08T13:41:15.167Z,99225.34
2024-02-08T13:46:17.875Z,99220.72
2024-02-08T13:51:22.215Z,99231.84
2024-02-08T13:56:24.387Z,99222.47
2024-02-08T14:01:27.309Z,99214.38
2024-02-08T14:06:31.186Z,99218.25
2024-02-08T14:11:40.127Z,99213.66
2024-02-08T14:16:46.895Z,99199.09
2024-02-08T14:21:49.208Z,99194.19
2024-02-08T14:26:51.367Z,99201.91
2024-02-08T14:31:54.264Z,99186.44
2024-02-08T14:36:58.711Z,99195.56
2024-02-08T14:42:12.145Z,99203.63
2024-02-08T14:47:26.692Z,99200.78
2024-02-08T14:52:36.692Z,99186.19
2024-02-08T14:57:43.397Z,99187.66
2024-02-08T15:02:56.796Z,99178.28
2024-02-08T15:08:09.760Z,99175.16
2024-02-08T15:13:20.142Z,99169.97
2024-02-08T15:18:31.774Z,99177.63
2024-02-08T15:23:50.073Z,99173.22
2024-02-08T15:28:57.216Z,99156.94
2024-02-08T15:34:18.312Z,99162.22
2024-02-08T15:39:37.320Z,99156.41
2024-02-08T15:45:09.560Z,99151.31
2024-02-08T15:50:16.872Z,99150.66
2024-02-08T15:55:19.280Z,99141.53
2024-02-08T16:00:40.536Z,99137.97
2024-02-08T16:05:46.307Z,99137.97
2024-02-08T16:10:50.954Z,99147.63
2024-02-08T16:15:59.132Z,99141.66
2024-02-08T16:21:06.840Z,99144.56
2024-02-08T16:26:11.124Z,99143.12
2024-02-08T16:31:20.066Z,99146.84
2024-02-08T16:36:30.809Z,99127.50
2024-02-08T16:41:35.620Z,99127.97
2024-02-08T16:46:37.999Z,99122.81
2024-02-08T16:51:46.350Z,99117.19
2024-02-08T16:56:49.088Z,99101.44
2024-02-08T17:01:54.372Z,99108.66
2024-02-08T17:07:04.348Z,99116.63
2024-02-08T17:12:19.293Z,99109.66
2024-02-08T17:17:26.120Z,99093.59
2024-02-08T17:22:31.315Z,99098.09
2024-02-08T17:27:50.161Z,99104.31
2024-02-08T17:32:55.229Z,99108.53
2024-02-08T17:38:01.889Z,99117.63
2024-02-08T17:43:10.532Z,99113.66
2024-02-08T17:48:15.434Z,99127.97
2024-02-08T17:53:23.368Z,99140.66
2024-02-08T17:58:25.854Z,99147.16
2024-02-08T18:03:28.096Z,99135.47
2024-02-08T18:08:30.903Z,99129.75
2024-02-08T18:13:34.282Z,99120.81
2024-02-08T18:18:38.790Z,99123.59
2024-02-08T18:23:46.829Z,99111.91
2024-02-08T18:28:49.652Z,99111.09
2024-02-08T18:33:58.564Z,99106.75
2024-02-08T18:39:01.068Z,99088.06
2024-02-08T18:44:05.506Z,99079.34
2024-02-08T18:49:10.135Z,99070.91
2024-02-08T18:54:13.177Z,99079.03
2024-02-08T18:59:15.375Z,99082.41
2024-02-08T19:04:20.818Z,99081.09
2024-02-08T19:09:27.734Z,99086.16
2024-02-08T19:14:32.533Z,99074.94
2024-02-08T19:19:35.746Z,99068.31
2024-02-08T19:24:39.882Z,99054.69
2024-02-08T19:29:42.652Z,99061.03
2024-02-08T19:34:45.221Z,99044.81
2024-02-08T19:39:48.981Z,99041.22
2024-02-08T19:44:55.705Z,99039.94
2024-02-08T19:50:04.306Z,99028.91
2024-02-08T19:55:22.059Z,99040.56
2024-02-08T20:00:31.350Z,99032.31
2024-02-08T20:05:48.376Z,99022.22
2024-02-08T20:10:52.821Z,99025.16
2024-02-08T20:15:55.107Z,99040.22
2024-02-08T20:20:59.916Z,99036.78
2024-02-08T20:26:02.700Z,99038.19
2024-02-08T20:31:08.956Z,99044.62
2024-02-08T20:36:14.966Z,99041.34
2024-02-08T20:41:17.452Z,99032.78
2024-02-08T20:46:19.746Z,99034.41
2024-02-08T20:51:23.238Z,99032.13
2024-02-08T20:56:29.503Z,99060.81
2024-02-08T21:01:36.206Z,99065.38
2024-02-08T21:06:38.935Z,99072.50
2024-02-08T21:11:44.592Z,99092.28
2024-02-08T21:16:49.924Z,99072.66
2024-02-08T21:21:53.328Z,99079.19
2024-02-08T21:26:55.812Z,99082.59
2024-02-08T21:32:00.970Z,99077.72
2024-02-08T21:37:08.173Z,99079.37
2024-02-08T21:42:10.788Z,99066.03
2024-02-08T21:47:13.056Z,99061.50
2024-02-08T21:52:17.558Z,99054.81
2024-02-08T21:57:19.773Z,99050.25
2024-02-08T22:02:23.071Z,99053.63
2024-02-08T22:07:25.331Z,99064.75
2024-02-08T22:12:28.348Z,99063.09
2024-02-08T22:17:30.899Z,99061.06
2024-02-08T22:22:33.512Z,99064.66
2024-02-08T22:27:36.506Z,99066.44
2024-02-08T22:32:45.041Z,99023.78
2024-02-08T22:37:50.076Z,99034.19
2024-02-08T22:42:53.354Z,99044.09
2024-02-08T22:47:55.736Z,99038.56
2024-02-08T22:52:58.308Z,99028.06
2024-02-08T22:58:03.141Z,99011.06
2024-02-08T23:03:08.567Z,98998.97
2024-02-08T23:08:17.064Z,99012.84
2024-02-08T23:13:19.806Z,99015.19
2024-02-08T23:18:23.322Z,99005.88
2024-02-08T23:23:27.437Z,99004.09
2024-02-08T23:28:29.725Z,98997.91
2024-02-08T23:33:32.364Z,99008.81
2024-02-08T23:38:35.500Z,98996.63
2024-02-08T23:43:38.128Z,98989.78
2024-02-08T23:48:40.444Z,99009.50
2024-02-08T23:53:44.502Z,99001.97
2024-02-08T23:58:49.872Z,99002.53
